createdAt,value
2019-03-15T00:00:17.332Z,16.30
2019-03-15T00:03:46.863Z,15.20
2019-03-15T00:07:10.802Z,15.87
2019-03-15T00:10:34.623Z,15.23
2019-03-15T00:17:30.865Z,16.73
2019-03-15T00:20:54.722Z,16.20
2019-03-15T00:24:23.129Z,15.77
2019-03-15T00:27:48.461Z,16.33
2019-03-15T00:31:12.188Z,17.23
2019-03-15T00:34:36.078Z,16.43
2019-03-15T00:38:02.923Z,15.77
2019-03-15T00:41:31.860Z,15.80
2019-03-15T00:44:57.211Z,15.00
2019-03-15T00:48:22.423Z,14.40
2019-03-15T00:51:46.366Z,15.43
2019-03-15T00:55:11.912Z,13.87
2019-03-15T00:58:35.870Z,13.40
2019-03-15T01:01:59.615Z,13.20
2019-03-15T01:05:23.376Z,13.13
2019-03-15T01:08:48.415Z,11.03
2019-03-15T01:12:13.613Z,11.70
2019-03-15T01:15:37.588Z,10.80
2019-03-15T01:19:03.007Z,10.53
2019-03-15T01:22:28.622Z,10.77
2019-03-15T01:25:55.186Z,9.97
2019-03-15T01:29:19.163Z,8.97
2019-03-15T01:32:43.049Z,9.30
2019-03-15T01:36:06.778Z,8.00
2019-03-15T01:39:32.372Z,9.33
2019-03-15T01:42:57.645Z,8.30
2019-03-15T01:46:24.169Z,8.80
2019-03-15T01:49:49.365Z,7.50
2019-03-15T01:53:15.240Z,6.83
2019-03-15T01:56:39.029Z,6.63
2019-03-15T02:00:06.039Z,7.00
2019-03-15T02:03:29.956Z,7.13
2019-03-15T02:06:55.231Z,6.93
2019-03-15T02:10:22.368Z,7.33
2019-03-15T02:13:46.413Z,7.50
2019-03-15T02:17:11.916Z,8.90
2019-03-15T02:20:35.907Z,5.97
2019-03-15T02:24:02.338Z,5.90
2019-03-15T02:27:27.642Z,6.50
2019-03-15T02:30:54.000Z,5.87
2019-03-15T02:34:17.786Z,4.77
2019-03-15T02:37:41.969Z,5.40
2019-03-15T02:41:05.758Z,4.73
2019-03-15T02:44:30.321Z,5.00
2019-03-15T02:47:53.975Z,4.77
2019-03-15T02:51:17.797Z,4.70
2019-03-15T02:54:44.374Z,5.30
2019-03-15T02:58:13.281Z,5.43
2019-03-15T03:01:39.769Z,5.30
2019-03-15T03:05:04.672Z,4.63
2019-03-15T03:08:31.570Z,5.27
2019-03-15T03:11:55.433Z,5.33
2019-03-15T03:15:22.555Z,5.50
2019-03-15T03:18:46.285Z,5.40
2019-03-15T03:22:13.158Z,5.97
2019-03-15T03:25:37.237Z,5.23
2019-03-15T03:29:01.183Z,5.13
2019-03-15T03:32:26.573Z,6.37
2019-03-15T03:35:52.961Z,7.17
2019-03-15T03:39:16.615Z,6.53
2019-03-15T03:42:40.580Z,6.67
2019-03-15T03:46:04.692Z,6.67
2019-03-15T03:49:28.790Z,6.37
2019-03-15T03:52:52.628Z,7.30
2019-03-15T03:56:18.385Z,7.70
2019-03-15T03:59:44.408Z,7.60
2019-03-15T04:03:08.558Z,7.93
2019-03-15T04:06:33.811Z,6.97
2019-03-15T04:09:58.699Z,7.50
2019-03-15T04:13:22.493Z,8.57
2019-03-15T04:16:49.018Z,7.40
2019-03-15T04:20:13.291Z,7.67
2019-03-15T04:23:38.389Z,7.93
2019-03-15T04:27:06.364Z,8.47
2019-03-15T04:30:33.158Z,9.07
2019-03-15T04:33:57.066Z,8.83
2019-03-15T04:37:22.953Z,8.80
2019-03-15T04:40:49.980Z,10.03
2019-03-15T04:44:13.719Z,9.33
2019-03-15T04:47:37.483Z,10.43
2019-03-15T04:51:05.222Z,10.03
2019-03-15T04:54:30.479Z,10.43
2019-03-15T04:57:54.103Z,10.90
2019-03-15T05:01:22.319Z,12.30
2019-03-15T05:04:48.505Z,12.93
2019-03-15T05:08:19.655Z,13.27
2019-03-15T05:11:46.121Z,14.13
2019-03-15T05:15:15.600Z,15.50
2019-03-15T05:18:41.048Z,15.07
2019-03-15T05:22:06.439Z,15.53
2019-03-15T05:25:31.774Z,16.67
2019-03-15T05:28:58.849Z,15.70
2019-03-15T05:32:25.659Z,17.27
2019-03-15T05:35:49.555Z,17.67
2019-03-15T05:39:14.626Z,17.63
2019-03-15T05:42:41.564Z,17.83
2019-03-15T05:46:05.563Z,18.07
2019-03-15T05:49:33.024Z,14.63
2019-03-15T05:52:59.019Z,16.27
2019-03-15T05:56:29.287Z,15.00
2019-03-15T05:59:53.059Z,15.53
2019-03-15T06:03:17.115Z,17.13
2019-03-15T06:06:44.474Z,13.63
2019-03-15T06:10:12.858Z,16.17
2019-03-15T06:13:38.183Z,16.53
2019-03-15T06:17:02.428Z,13.17
2019-03-15T06:20:26.329Z,15.70
2019-03-15T06:23:50.324Z,14.57
2019-03-15T06:27:19.597Z,14.50
2019-03-15T06:30:46.547Z,15.23
2019-03-15T06:34:10.665Z,15.33
2019-03-15T06:37:41.912Z,14.03
2019-03-15T06:41:05.911Z,14.00
2019-03-15T06:44:29.663Z,12.93
2019-03-15T06:47:53.589Z,11.93
2019-03-15T06:51:19.213Z,10.47
2019-03-15T06:54:44.595Z,10.77
2019-03-15T06:58:08.504Z,12.60
2019-03-15T07:01:32.258Z,10.60
2019-03-15T07:05:03.764Z,10.67
2019-03-15T07:08:27.591Z,8.93
2019-03-15T07:11:51.371Z,10.13
2019-03-15T07:15:18.236Z,7.97
2019-03-15T07:18:46.779Z,11.57
2019-03-15T07:22:19.749Z,9.20
2019-03-15T07:25:46.016Z,8.23
2019-03-15T07:29:11.944Z,9.37
2019-03-15T07:32:39.022Z,8.67
2019-03-15T07:36:03.228Z,7.13
2019-03-15T07:39:28.605Z,7.47
2019-03-15T07:42:55.108Z,5.23
2019-03-15T07:46:20.357Z,8.43
2019-03-15T07:49:44.246Z,5.13
2019-03-15T07:53:14.968Z,6.30
2019-03-15T07:56:41.476Z,6.60
2019-03-15T08:00:09.551Z,5.53
2019-03-15T08:03:33.332Z,5.70
2019-03-15T08:06:57.200Z,5.37
2019-03-15T08:10:22.008Z,4.87
2019-03-15T08:13:45.671Z,4.03
2019-03-15T08:17:11.081Z,4.40
2019-03-15T08:20:35.007Z,4.80
2019-03-15T08:23:59.047Z,5.33
2019-03-15T08:27:22.781Z,4.73
2019-03-15T08:30:46.755Z,3.90
2019-03-15T08:34:14.968Z,3.83
2019-03-15T08:37:38.883Z,4.97
2019-03-15T08:41:03.091Z,4.07
2019-03-15T08:44:27.893Z,3.90
2019-03-15T08:47:53.214Z,4.87
2019-03-15T08:51:17.515Z,4.07
2019-03-15T08:54:42.735Z,3.83
2019-03-15T08:58:13.897Z,3.83
2019-03-15T09:01:32.420Z,3.50
2019-03-15T09:04:56.221Z,3.63
2019-03-15T09:08:20.162Z,4.43
2019-03-15T09:11:43.948Z,4.33
2019-03-15T09:15:12.079Z,3.57
2019-03-15T09:18:36.126Z,3.87
2019-03-15T09:22:00.760Z,4.00
2019-03-15T09:25:24.874Z,4.07
2019-03-15T09:28:48.594Z,3.60
2019-03-15T09:32:12.434Z,3.70
2019-03-15T09:35:36.285Z,3.10
2019-03-15T09:39:00.011Z,4.47
2019-03-15T09:42:24.113Z,5.67
2019-03-15T09:45:47.904Z,4.97
2019-03-15T09:49:13.276Z,7.90
2019-03-15T09:52:37.001Z,3.53
2019-03-15T09:56:00.861Z,3.40
2019-03-15T09:59:24.711Z,4.87
2019-03-15T10:02:51.873Z,6.53
2019-03-15T10:06:19.370Z,4.07
2019-03-15T10:09:46.118Z,5.47
2019-03-15T10:13:06.745Z,7.47
2019-03-15T10:16:32.090Z,6.10
2019-03-15T10:19:56.129Z,5.40
2019-03-15T10:23:19.986Z,5.13
2019-03-15T10:26:47.146Z,5.17
2019-03-15T10:30:16.385Z,4.77
2019-03-15T10:33:50.485Z,4.23
2019-03-15T10:37:11.699Z,5.33
2019-03-15T10:40:35.590Z,5.07
2019-03-15T10:44:04.313Z,4.63
2019-03-15T10:47:30.186Z,4.37
2019-03-15T10:50:56.919Z,3.80
2019-03-15T10:54:20.604Z,5.47
2019-03-15T10:57:47.247Z,8.90
2019-03-15T11:01:11.002Z,8.57
2019-03-15T11:04:34.896Z,5.90
2019-03-15T11:07:58.596Z,6.97
2019-03-15T11:11:23.946Z,17.53
2019-03-15T11:14:47.804Z,18.40
2019-03-15T11:18:11.643Z,22.83
2019-03-15T11:21:35.446Z,13.00
2019-03-15T11:24:59.296Z,13.97
2019-03-15T11:28:23.081Z,33.93
2019-03-15T11:31:47.094Z,11.03
2019-03-15T11:35:11.619Z,9.73
2019-03-15T11:38:35.444Z,13.10
2019-03-15T11:41:59.203Z,9.30
2019-03-15T11:45:23.515Z,4.70
2019-03-15T11:48:47.366Z,7.70
2019-03-15T11:52:11.087Z,5.93
2019-03-15T11:55:34.840Z,5.40
2019-03-15T11:58:58.484Z,5.00
2019-03-15T12:02:22.241Z,7.07
2019-03-15T12:05:45.921Z,5.00
2019-03-15T12:09:09.904Z,5.20
2019-03-15T12:12:35.392Z,4.53
2019-03-15T12:15:59.248Z,6.10
2019-03-15T12:19:23.019Z,6.27
2019-03-15T12:22:48.350Z,6.10
2019-03-15T12:26:12.292Z,6.27
2019-03-15T12:29:39.305Z,6.77
2019-03-15T12:33:03.452Z,6.67
2019-03-15T12:36:27.487Z,6.80
2019-03-15T12:39:51.705Z,6.43
2019-03-15T12:43:15.869Z,5.53
2019-03-15T12:46:43.329Z,5.90
2019-03-15T12:50:14.639Z,5.07
2019-03-15T12:53:38.894Z,5.27
2019-03-15T12:57:03.338Z,5.20
2019-03-15T13:00:27.628Z,4.53
2019-03-15T13:03:51.617Z,5.03
2019-03-15T13:07:15.654Z,4.43
2019-03-15T13:10:41.982Z,4.23
2019-03-15T13:14:06.572Z,4.13
2019-03-15T13:17:31.182Z,4.47
2019-03-15T13:20:55.548Z,5.33
2019-03-15T13:24:19.869Z,5.10
2019-03-15T13:27:43.741Z,5.40
2019-03-15T13:31:12.194Z,4.40
2019-03-15T13:34:36.203Z,5.23
2019-03-15T13:38:00.327Z,5.33
2019-03-15T13:41:24.777Z,4.50
2019-03-15T13:44:48.566Z,5.20
2019-03-15T13:48:12.637Z,6.07
2019-03-15T13:51:36.648Z,6.10
2019-03-15T13:55:00.435Z,5.60
2019-03-15T13:58:24.254Z,5.30
2019-03-15T14:01:48.019Z,5.33
2019-03-15T14:05:12.518Z,6.20
2019-03-15T14:08:36.366Z,5.80
2019-03-15T14:12:00.271Z,5.30
2019-03-15T14:15:24.979Z,4.80
2019-03-15T14:18:52.388Z,5.47
2019-03-15T14:22:18.070Z,5.67
2019-03-15T14:25:44.396Z,5.40
2019-03-15T14:29:08.806Z,5.80
2019-03-15T14:32:36.516Z,5.37
2019-03-15T14:36:03.857Z,4.87
2019-03-15T14:39:27.153Z,4.70
2019-03-15T14:42:51.309Z,5.40
2019-03-15T14:46:17.158Z,4.60
2019-03-15T14:49:43.806Z,4.20
2019-03-15T14:53:07.747Z,5.20
2019-03-15T14:56:32.081Z,4.23
2019-03-15T14:59:58.923Z,5.33
2019-03-15T15:03:23.119Z,6.53
2019-03-15T15:06:47.412Z,6.13
2019-03-15T15:10:18.713Z,5.33
2019-03-15T15:13:44.180Z,7.70
2019-03-15T15:17:10.873Z,4.30
2019-03-15T15:20:36.410Z,4.83
2019-03-15T15:24:05.466Z,4.23
2019-03-15T15:27:31.094Z,3.80
2019-03-15T15:30:57.042Z,4.10
2019-03-15T15:34:22.685Z,3.70
2019-03-15T15:37:49.195Z,4.90
2019-03-15T15:41:17.046Z,3.83
2019-03-15T15:44:43.288Z,3.77
2019-03-15T15:48:07.475Z,3.73
2019-03-15T15:51:31.418Z,4.37
2019-03-15T15:54:55.223Z,4.00
2019-03-15T15:58:19.059Z,4.20
2019-03-15T16:01:43.225Z,4.40
2019-03-15T16:05:08.759Z,4.80
2019-03-15T16:08:33.048Z,5.33
2019-03-15T16:11:57.026Z,4.73
2019-03-15T16:15:21.028Z,5.73
2019-03-15T16:18:45.274Z,4.37
2019-03-15T16:22:09.063Z,5.63
2019-03-15T16:25:32.851Z,5.23
2019-03-15T16:28:56.729Z,6.90
2019-03-15T16:32:21.644Z,5.80
2019-03-15T16:35:46.082Z,6.10
2019-03-15T16:39:10.177Z,6.17
2019-03-15T16:42:33.986Z,6.07
2019-03-15T16:45:59.347Z,6.43
2019-03-15T16:49:23.423Z,8.77
2019-03-15T16:52:47.758Z,8.37
2019-03-15T16:56:14.863Z,8.80
2019-03-15T16:59:38.801Z,8.40
2019-03-15T17:03:02.719Z,9.10
2019-03-15T17:06:26.849Z,8.10
2019-03-15T17:09:50.829Z,8.97
2019-03-15T17:13:14.690Z,8.63
2019-03-15T17:16:38.911Z,8.27
2019-03-15T17:20:03.244Z,8.37
2019-03-15T17:23:27.148Z,8.37
2019-03-15T17:26:51.793Z,7.57
2019-03-15T17:30:17.923Z,8.60
2019-03-15T17:33:45.308Z,8.50
2019-03-15T17:37:09.989Z,10.27
2019-03-15T17:40:34.483Z,10.83
2019-03-15T17:43:58.652Z,11.03
2019-03-15T17:47:25.418Z,12.00
2019-03-15T17:50:49.491Z,14.97
2019-03-15T17:54:13.970Z,14.47
2019-03-15T17:57:39.950Z,17.23
2019-03-15T18:01:04.451Z,16.23
2019-03-15T18:04:29.793Z,15.67
2019-03-15T18:07:54.062Z,16.90
2019-03-15T18:11:18.033Z,18.07
2019-03-15T18:14:42.741Z,17.93
2019-03-15T18:18:09.133Z,19.33
2019-03-15T18:21:33.101Z,19.53
2019-03-15T18:25:00.076Z,18.17
2019-03-15T18:28:23.919Z,18.07
2019-03-15T18:31:48.116Z,17.63
2019-03-15T18:35:12.560Z,18.63
2019-03-15T18:38:36.724Z,18.00
2019-03-15T18:42:00.823Z,17.67
2019-03-15T18:45:24.779Z,15.80
2019-03-15T18:48:49.275Z,17.33
2019-03-15T18:52:13.158Z,17.57
2019-03-15T18:55:37.260Z,18.73
2019-03-15T18:59:01.285Z,15.50
2019-03-15T19:02:25.331Z,17.77
2019-03-15T19:05:49.069Z,18.13
2019-03-15T19:09:13.131Z,17.17
2019-03-15T19:12:38.505Z,19.17
2019-03-15T19:16:05.089Z,18.30
2019-03-15T19:19:29.420Z,18.27
2019-03-15T19:22:53.760Z,17.53
2019-03-15T19:26:20.215Z,17.83
2019-03-15T19:29:53.595Z,18.10
2019-03-15T19:33:10.278Z,17.63
2019-03-15T19:36:38.878Z,18.20
2019-03-15T19:40:07.384Z,17.80
2019-03-15T19:43:43.759Z,15.30
2019-03-15T19:47:07.620Z,17.03
2019-03-15T19:50:31.457Z,15.40
2019-03-15T19:53:55.269Z,14.90
2019-03-15T19:57:19.582Z,14.63
2019-03-15T20:00:43.665Z,16.27
2019-03-15T20:04:08.231Z,15.27
2019-03-15T20:07:32.153Z,15.07
2019-03-15T20:10:56.164Z,18.53
2019-03-15T20:14:20.546Z,18.97
2019-03-15T20:17:44.553Z,18.03
2019-03-15T20:21:10.569Z,18.30
2019-03-15T20:24:36.793Z,16.33
2019-03-15T20:28:04.080Z,15.20
2019-03-15T20:31:29.928Z,16.90
2019-03-15T20:34:53.740Z,14.97
2019-03-15T20:38:17.666Z,14.87
2019-03-15T20:41:41.802Z,13.87
2019-03-15T20:45:10.909Z,14.60
2019-03-15T20:48:34.776Z,14.27
2019-03-15T20:52:00.144Z,12.30
2019-03-15T20:55:23.944Z,12.97
2019-03-15T20:58:47.769Z,11.90
2019-03-15T21:02:11.722Z,12.23
2019-03-15T21:05:35.570Z,12.10
2019-03-15T21:08:59.423Z,11.77
2019-03-15T21:12:23.242Z,11.23
2019-03-15T21:15:47.973Z,10.33
2019-03-15T21:19:12.264Z,10.43
2019-03-15T21:22:36.174Z,9.83
2019-03-15T21:26:04.206Z,10.60
2019-03-15T21:29:28.202Z,10.00
2019-03-15T21:32:57.001Z,10.30
2019-03-15T21:36:20.879Z,8.93
2019-03-15T21:39:45.995Z,10.17
2019-03-15T21:43:10.665Z,10.43
2019-03-15T21:46:34.813Z,10.57
2019-03-15T21:49:58.769Z,11.83
2019-03-15T21:53:22.608Z,11.03
2019-03-15T21:56:46.522Z,12.37
2019-03-15T22:00:16.352Z,10.23
2019-03-15T22:03:40.228Z,11.13
2019-03-15T22:07:04.071Z,10.37
2019-03-15T22:10:28.274Z,10.50
2019-03-15T22:13:52.602Z,10.27
2019-03-15T22:17:16.455Z,10.40
2019-03-15T22:20:40.450Z,11.47
2019-03-15T22:24:04.623Z,11.43
2019-03-15T22:27:28.504Z,12.23
2019-03-15T22:30:53.278Z,12.80
2019-03-15T22:34:17.204Z,11.43
2019-03-15T22:37:41.173Z,11.47
2019-03-15T22:41:05.017Z,11.93
2019-03-15T22:44:29.730Z,12.53
2019-03-15T22:47:53.597Z,11.87
2019-03-15T22:51:17.492Z,12.57
2019-03-15T22:54:41.501Z,13.23
2019-03-15T22:58:05.321Z,12.83
2019-03-15T23:01:30.650Z,16.00
2019-03-15T23:04:54.779Z,14.53
2019-03-15T23:08:19.015Z,12.97
2019-03-15T23:11:42.762Z,12.77
2019-03-15T23:15:08.780Z,14.80
2019-03-15T23:18:32.663Z,13.90
2019-03-15T23:21:56.543Z,12.07
2019-03-15T23:25:20.293Z,13.17
2019-03-15T23:28:47.085Z,11.53
2019-03-15T23:32:12.871Z,10.13
2019-03-15T23:35:52.818Z,10.03
2019-03-15T23:39:02.151Z,10.33
2019-03-15T23:42:26.097Z,11.57
2019-03-15T23:45:49.953Z,11.03
2019-03-15T23:49:13.673Z,11.23
2019-03-15T23:52:37.468Z,11.90
2019-03-15T23:56:01.265Z,10.37
2019-03-15T23:59:25.130Z,11.83
